Time;durP1;ratioP1;P1;durP2;ratioP2;P2;SDS_P1;SDS_P2;PMS_P1;PMS_P2;Temp;Humidity;BMP_temperature;BMP_pressure;BME280_temperature;BME280_humidity;BME280_pressure;Samples;Min_cycle;Max_cycle;Signal;HPM_P1;HPM_P2
2023/12/18 00:00:18;;;;;;;25.50;15.52;;;8.70;99.90;;;;;;5051291;28;20228;-67
2023/12/18 00:02:45;;;;;;;28.42;14.18;;;8.70;99.90;;;;;;5051580;28;20600;-68
2023/12/18 00:05:12;;;;;;;28.40;16.02;;;8.70;99.90;;;;;;5046195;28;20197;-69
2023/12/18 00:07:40;;;;;;;25.38;15.48;;;8.80;99.90;;;;;;5051704;28;20252;-68
2023/12/18 00:10:08;;;;;;;22.23;14.68;;;8.70;99.90;;;;;;5043019;28;20255;-66
2023/12/18 00:12:36;;;;;;;33.35;17.33;;;8.70;99.90;;;;;;5054874;28;20208;-67
2023/12/18 00:15:03;;;;;;;32.22;15.98;;;8.70;99.90;;;;;;5047207;28;20219;-67
2023/12/18 00:17:31;;;;;;;29.83;14.05;;;8.70;99.90;;;;;;5055005;28;20255;-64
2023/12/18 00:19:59;;;;;;;29.15;15.02;;;8.70;99.90;;;;;;5052796;28;20270;-69
2023/12/18 00:22:26;;;;;;;25.88;15.38;;;8.70;99.90;;;;;;5044083;28;20280;-67
2023/12/18 00:24:52;;;;;;;24.13;15.95;;;8.70;99.90;;;;;;5050675;28;20695;-68
2023/12/18 00:27:20;;;;;;;31.42;15.43;;;8.70;99.90;;;;;;5055481;28;20220;-67
2023/12/18 00:29:47;;;;;;;25.70;14.07;;;8.70;99.90;;;;;;5053252;28;20563;-69
2023/12/18 00:32:14;;;;;;;23.52;16.05;;;8.60;99.90;;;;;;5053165;28;20246;-71
2023/12/18 00:34:42;;;;;;;30.00;15.80;;;8.60;99.90;;;;;;5052342;28;20244;-68
2023/12/18 00:37:09;;;;;;;31.05;15.57;;;8.60;99.90;;;;;;5052797;28;20639;-65
2023/12/18 00:39:36;;;;;;;20.23;14.75;;;8.60;99.90;;;;;;5052664;28;20618;-66
2023/12/18 00:42:03;;;;;;;25.42;15.82;;;8.60;99.90;;;;;;5051497;28;20203;-66
2023/12/18 00:44:30;;;;;;;31.48;17.17;;;8.60;99.90;;;;;;5049270;28;20261;-68
2023/12/18 00:46:57;;;;;;;27.77;19.02;;;8.60;99.90;;;;;;5054114;28;20226;-67
2023/12/18 00:49:27;;;;;;;33.38;20.58;;;8.50;99.90;;;;;;5047578;28;20240;-67
2023/12/18 00:51:56;;;;;;;29.50;16.55;;;8.50;99.90;;;;;;5041216;28;20258;-68
2023/12/18 00:54:23;;;;;;;32.25;19.35;;;8.50;99.90;;;;;;5046301;28;20235;-67
2023/12/18 00:56:50;;;;;;;32.05;19.23;;;8.50;99.90;;;;;;5044490;28;20219;-67
2023/12/18 00:59:17;;;;;;;26.75;16.27;;;8.50;99.90;;;;;;5047779;28;20587;-65
2023/12/18 01:01:45;;;;;;;38.70;18.25;;;8.50;99.90;;;;;;5049721;28;20200;-69
2023/12/18 01:04:12;;;;;;;26.70;15.57;;;8.50;99.90;;;;;;5051638;28;20196;-66
2023/12/18 01:06:40;;;;;;;28.20;17.42;;;8.50;99.90;;;;;;5053848;28;20259;-68
2023/12/18 01:09:09;;;;;;;34.20;17.42;;;8.50;99.90;;;;;;5052416;28;20318;-65
2023/12/18 01:11:36;;;;;;;29.45;17.20;;;8.50;99.90;;;;;;5053162;28;20694;-68
2023/12/18 01:14:03;;;;;;;31.45;17.90;;;8.40;99.90;;;;;;5051505;28;20671;-65
2023/12/18 01:16:31;;;;;;;37.22;19.08;;;8.50;99.90;;;;;;5051963;28;20230;-66
2023/12/18 01:18:58;;;;;;;33.70;17.73;;;8.50;99.90;;;;;;5053001;28;20238;-70
2023/12/18 01:21:25;;;;;;;27.73;17.30;;;8.50;99.90;;;;;;5051765;28;20736;-65
2023/12/18 01:23:52;;;;;;;28.15;17.77;;;8.50;99.90;;;;;;5051105;28;20238;-66
2023/12/18 01:26:20;;;;;;;28.42;16.50;;;8.50;99.90;;;;;;5054806;28;20215;-69
2023/12/18 01:28:47;;;;;;;30.08;17.50;;;8.50;99.90;;;;;;5052527;28;20211;-64
2023/12/18 01:31:22;;;;;;;26.15;16.85;;;8.50;99.90;;;;;;5052253;28;20235;-67
2023/12/18 01:33:49;;;;;;;34.20;18.92;;;8.50;99.90;;;;;;5051106;28;20307;-65
2023/12/18 01:36:16;;;;;;;28.67;16.35;;;8.50;99.90;;;;;;5051292;28;20259;-66
2023/12/18 01:38:43;;;;;;;29.55;19.35;;;8.50;99.90;;;;;;5051660;28;20678;-67
2023/12/18 01:41:10;;;;;;;51.03;21.50;;;8.40;99.90;;;;;;5049907;28;20222;-69
2023/12/18 01:43:38;;;;;;;30.58;18.38;;;8.50;99.90;;;;;;5051037;28;20200;-63
2023/12/18 01:46:06;;;;;;;37.90;19.58;;;8.40;99.90;;;;;;5043829;28;20236;-65
2023/12/18 01:48:34;;;;;;;31.98;19.20;;;8.30;99.90;;;;;;5046192;28;20232;-69
2023/12/18 01:51:03;;;;;;;33.05;21.92;;;8.40;99.90;;;;;;5046665;28;20232;-66
2023/12/18 01:53:35;;;;;;;36.63;19.83;;;8.50;99.90;;;;;;5042092;28;20214;-66
2023/12/18 01:56:04;;;;;;;27.77;19.92;;;8.40;99.90;;;;;;5052425;28;20224;-68
2023/12/18 01:58:32;;;;;;;35.38;20.23;;;8.40;99.90;;;;;;5043936;28;20208;-68
2023/12/18 02:01:01;;;;;;;34.55;19.30;;;8.40;99.90;;;;;;5044891;28;20196;-65
2023/12/18 02:03:29;;;;;;;34.42;20.42;;;8.40;99.90;;;;;;5045804;28;20205;-70
2023/12/18 02:05:57;;;;;;;41.88;21.98;;;8.40;99.90;;;;;;5037943;28;20231;-66
2023/12/18 02:08:25;;;;;;;43.92;23.15;;;8.30;99.90;;;;;;5053246;28;20262;-67
2023/12/18 02:10:52;;;;;;;41.17;21.38;;;8.30;99.90;;;;;;5047715;28;20231;-70
2023/12/18 02:13:19;;;;;;;38.25;20.45;;;8.30;99.90;;;;;;5046490;28;20195;-68
2023/12/18 02:15:46;;;;;;;36.10;22.60;;;8.30;99.90;;;;;;5039843;28;20727;-66
2023/12/18 02:18:14;;;;;;;42.78;21.88;;;8.30;99.90;;;;;;5050834;28;20258;-67
2023/12/18 02:20:42;;;;;;;35.92;22.25;;;8.30;99.90;;;;;;5049936;28;20246;-67
2023/12/18 02:23:11;;;;;;;36.92;21.02;;;8.30;99.90;;;;;;5050656;28;20200;-68
2023/12/18 02:25:38;;;;;;;40.17;23.85;;;8.40;99.90;;;;;;5042900;28;20257;-64
2023/12/18 02:28:08;;;;;;;43.15;20.17;;;8.30;99.90;;;;;;5051483;28;20224;-67
2023/12/18 02:30:35;;;;;;;32.30;21.58;;;8.30;99.90;;;;;;5050655;28;20686;-67
2023/12/18 02:33:02;;;;;;;39.35;21.90;;;8.30;99.90;;;;;;5050357;28;20257;-68
2023/12/18 02:35:29;;;;;;;29.67;19.95;;;8.30;99.90;;;;;;5047696;28;20281;-68
2023/12/18 02:37:56;;;;;;;35.60;22.90;;;8.30;99.90;;;;;;5050837;28;20585;-67
2023/12/18 02:40:26;;;;;;;34.42;21.33;;;8.30;99.90;;;;;;5047937;28;20228;-66
2023/12/18 02:42:53;;;;;;;36.95;22.50;;;8.30;99.90;;;;;;5053481;28;20197;-67
2023/12/18 02:45:21;;;;;;;28.70;21.92;;;8.40;99.90;;;;;;5050315;28;20196;-69
2023/12/18 02:47:48;;;;;;;38.03;23.50;;;8.40;99.90;;;;;;5047995;28;20224;-66
2023/12/18 02:50:16;;;;;;;38.72;20.73;;;8.40;99.90;;;;;;5047161;28;20196;-65
2023/12/18 02:52:43;;;;;;;41.95;21.15;;;8.30;99.90;;;;;;5047538;28;20235;-69
2023/12/18 02:55:12;;;;;;;36.25;23.35;;;8.30;99.90;;;;;;5054023;28;20200;-65
2023/12/18 02:57:40;;;;;;;42.38;20.90;;;8.20;99.90;;;;;;5055267;28;20220;-65
2023/12/18 03:00:09;;;;;;;29.42;21.92;;;8.30;99.90;;;;;;5049876;28;20232;-65
2023/12/18 03:02:37;;;;;;;42.40;23.17;;;8.30;99.90;;;;;;5048105;28;20236;-68
2023/12/18 03:05:04;;;;;;;34.88;21.83;;;8.30;99.90;;;;;;5054140;28;20712;-68
2023/12/18 03:07:31;;;;;;;39.10;23.15;;;8.30;99.90;;;;;;5049857;28;20302;-68
2023/12/18 03:09:59;;;;;;;44.05;23.55;;;8.30;99.90;;;;;;5053521;28;20618;-69
2023/12/18 03:12:26;;;;;;;36.50;22.75;;;8.30;99.90;;;;;;5047917;28;20208;-71
2023/12/18 03:14:54;;;;;;;39.38;24.52;;;8.30;99.90;;;;;;5047112;28;20601;-65
2023/12/18 03:17:21;;;;;;;38.72;22.23;;;8.30;99.90;;;;;;5053479;28;20228;-67
2023/12/18 03:19:48;;;;;;;31.60;21.50;;;8.30;99.90;;;;;;5046360;28;20236;-67
2023/12/18 03:22:15;;;;;;;39.67;22.95;;;8.30;99.90;;;;;;5051468;28;20204;-65
2023/12/18 03:24:43;;;;;;;41.20;24.83;;;8.20;99.90;;;;;;5045093;28;20270;-67
2023/12/18 03:27:10;;;;;;;39.92;23.05;;;8.20;99.90;;;;;;5055528;28;20216;-67
2023/12/18 03:29:38;;;;;;;40.20;23.30;;;8.20;99.90;;;;;;5045886;28;20201;-69
2023/12/18 03:32:07;;;;;;;42.55;24.23;;;8.20;99.90;;;;;;5053881;28;20199;-66
2023/12/18 03:34:34;;;;;;;36.92;26.08;;;8.10;99.90;;;;;;5050781;28;20250;-66
2023/12/18 03:37:01;;;;;;;49.75;24.80;;;8.10;99.90;;;;;;5052466;28;20255;-67
2023/12/18 03:39:28;;;;;;;34.13;22.10;;;8.10;99.90;;;;;;5051142;28;20223;-67
2023/12/18 03:41:57;;;;;;;36.72;24.85;;;8.00;99.90;;;;;;5049160;28;20243;-64
2023/12/18 03:44:24;;;;;;;42.55;26.88;;;8.00;99.90;;;;;;5052054;28;20678;-66
2023/12/18 03:46:51;;;;;;;38.90;24.92;;;8.00;99.90;;;;;;5043483;28;20801;-66
2023/12/18 03:49:19;;;;;;;43.78;25.83;;;8.10;99.90;;;;;;5049355;28;20261;-69
2023/12/18 03:51:46;;;;;;;46.83;26.58;;;8.00;99.90;;;;;;5045894;28;20208;-68
2023/12/18 03:54:13;;;;;;;38.08;27.55;;;8.10;99.90;;;;;;5048568;28;20662;-68
2023/12/18 03:56:40;;;;;;;54.40;25.38;;;8.00;99.90;;;;;;5045946;28;20301;-65
2023/12/18 03:59:07;;;;;;;36.42;23.92;;;8.00;99.90;;;;;;5044843;28;20551;-66
2023/12/18 04:01:33;;;;;;;45.58;27.48;;;8.00;99.90;;;;;;5048351;28;20257;-65
2023/12/18 04:04:00;;;;;;;40.00;27.40;;;8.00;99.90;;;;;;5044986;28;20207;-66
2023/12/18 04:06:29;;;;;;;50.42;28.02;;;8.00;99.90;;;;;;5048342;28;20270;-64
2023/12/18 04:08:56;;;;;;;45.58;24.38;;;8.00;99.90;;;;;;5041247;28;20231;-65
2023/12/18 04:11:23;;;;;;;53.65;29.50;;;8.00;99.90;;;;;;5052955;28;20564;-70
2023/12/18 04:13:51;;;;;;;54.42;27.80;;;8.00;99.90;;;;;;5051817;28;20258;-65
2023/12/18 04:16:18;;;;;;;47.85;26.92;;;7.90;99.90;;;;;;5053121;28;20226;-67
2023/12/18 04:18:45;;;;;;;39.67;26.60;;;8.00;99.90;;;;;;5053459;28;20236;-65
2023/12/18 04:21:12;;;;;;;45.38;27.90;;;7.90;99.90;;;;;;5049050;28;20240;-66
2023/12/18 04:23:40;;;;;;;42.72;29.45;;;7.90;99.90;;;;;;5044937;28;20236;-67
2023/12/18 04:26:09;;;;;;;48.33;29.98;;;7.90;99.90;;;;;;5044501;28;20243;-64
2023/12/18 04:28:36;;;;;;;54.17;32.00;;;7.80;99.90;;;;;;5050725;28;20261;-68
2023/12/18 04:31:04;;;;;;;58.60;31.35;;;7.80;99.90;;;;;;5040498;28;20219;-66
2023/12/18 04:33:31;;;;;;;49.95;31.55;;;7.70;99.90;;;;;;5047313;28;20196;-65
2023/12/18 04:36:00;;;;;;;60.67;30.38;;;7.70;99.90;;;;;;5044105;28;20720;-66
2023/12/18 04:38:27;;;;;;;48.15;32.78;;;7.80;99.90;;;;;;5051729;28;20257;-69
2023/12/18 04:40:56;;;;;;;64.10;33.20;;;7.70;99.90;;;;;;5050343;28;20211;-69
2023/12/18 04:43:23;;;;;;;56.60;30.10;;;7.60;99.90;;;;;;5041009;28;20631;-65
2023/12/18 04:45:50;;;;;;;65.85;30.45;;;7.60;99.90;;;;;;5048093;28;21046;-66
2023/12/18 04:48:17;;;;;;;67.38;32.60;;;7.70;99.90;;;;;;5046824;28;20726;-67
2023/12/18 04:50:44;;;;;;;56.88;33.78;;;7.70;99.90;;;;;;5048083;28;20638;-67
2023/12/18 04:53:11;;;;;;;51.90;34.10;;;7.70;99.90;;;;;;5046123;28;20521;-68
2023/12/18 04:55:38;;;;;;;66.55;35.70;;;7.70;99.90;;;;;;5040813;28;20224;-68
2023/12/18 04:58:06;;;;;;;69.88;32.45;;;7.60;99.90;;;;;;5053230;28;20708;-69
2023/12/18 05:00:33;;;;;;;58.90;35.08;;;7.70;99.90;;;;;;5051090;28;20616;-69
2023/12/18 05:03:01;;;;;;;55.65;32.97;;;7.60;99.90;;;;;;5053153;28;20238;-64
2023/12/18 05:05:27;;;;;;;54.15;35.20;;;7.60;99.90;;;;;;5049462;28;21410;-66
2023/12/18 05:08:03;;;;;;;61.67;36.67;;;7.60;99.90;;;;;;5055597;28;20220;-66
2023/12/18 05:10:29;;;;;;;63.15;34.20;;;7.60;99.90;;;;;;5052363;28;20624;-66
2023/12/18 05:12:57;;;;;;;65.90;35.85;;;7.70;99.90;;;;;;5046525;28;20212;-68
2023/12/18 05:15:25;;;;;;;55.22;33.70;;;7.60;99.90;;;;;;5049439;28;20231;-69
2023/12/18 05:17:52;;;;;;;62.20;35.92;;;7.60;99.90;;;;;;5053330;28;20231;-66
2023/12/18 05:20:19;;;;;;;68.50;37.55;;;7.60;99.90;;;;;;5045761;28;20205;-69
2023/12/18 05:22:46;;;;;;;53.65;34.80;;;7.70;99.90;;;;;;5048148;28;20262;-67
2023/12/18 05:25:13;;;;;;;58.22;33.40;;;7.70;99.90;;;;;;5042605;28;20702;-66
2023/12/18 05:27:41;;;;;;;60.75;33.42;;;7.70;99.90;;;;;;5049181;28;20273;-67
2023/12/18 05:30:08;;;;;;;60.40;32.25;;;7.70;99.90;;;;;;5049260;28;20203;-67
2023/12/18 05:32:37;;;;;;;52.95;31.33;;;7.70;99.90;;;;;;5045757;28;20655;-69
2023/12/18 05:35:06;;;;;;;57.85;33.03;;;7.70;99.90;;;;;;5050755;28;20207;-71
2023/12/18 05:37:32;;;;;;;59.80;34.90;;;7.70;99.90;;;;;;5045760;28;20233;-68
2023/12/18 05:40:00;;;;;;;63.63;33.97;;;7.70;99.90;;;;;;5047067;28;20196;-65
2023/12/18 05:42:26;;;;;;;61.13;36.28;;;7.70;99.90;;;;;;5050230;28;20204;-67
2023/12/18 05:44:54;;;;;;;55.45;32.90;;;7.70;99.90;;;;;;5048934;28;20616;-69
2023/12/18 05:47:21;;;;;;;60.90;33.72;;;7.80;99.90;;;;;;5051890;28;20224;-71
2023/12/18 05:49:49;;;;;;;45.33;32.90;;;7.70;99.90;;;;;;5049674;28;20211;-68
2023/12/18 05:52:18;;;;;;;54.78;31.38;;;7.80;99.90;;;;;;5049469;28;20208;-71
2023/12/18 05:54:45;;;;;;;63.83;32.75;;;7.80;99.90;;;;;;5038997;28;20215;-68
2023/12/18 05:57:16;;;;;;;65.50;34.15;;;7.80;99.90;;;;;;5051416;28;20227;-69
2023/12/18 05:59:44;;;;;;;58.45;33.50;;;7.80;99.90;;;;;;5049653;28;20303;-66
2023/12/18 06:02:11;;;;;;;58.53;34.47;;;7.80;99.90;;;;;;5043338;28;20208;-66
2023/12/18 06:04:43;;;;;;;58.50;34.85;;;7.80;99.90;;;;;;5045793;28;20450;-66
2023/12/18 06:07:11;;;;;;;54.30;33.65;;;7.80;99.90;;;;;;5044617;28;20462;-66
2023/12/18 06:09:38;;;;;;;56.20;33.63;;;7.80;99.90;;;;;;5052049;28;20204;-70
2023/12/18 06:12:06;;;;;;;65.68;34.70;;;7.90;99.90;;;;;;5046007;28;20658;-65
2023/12/18 06:14:33;;;;;;;64.50;36.83;;;7.90;99.90;;;;;;5048977;28;20208;-70
2023/12/18 06:16:59;;;;;;;57.67;33.00;;;7.90;99.90;;;;;;5044870;28;20228;-67
2023/12/18 06:19:26;;;;;;;52.85;34.17;;;7.90;99.90;;;;;;5051543;28;20517;-69
2023/12/18 06:21:53;;;;;;;48.55;30.15;;;7.90;99.90;;;;;;5051849;28;20322;-67
2023/12/18 06:24:21;;;;;;;62.22;33.10;;;7.80;99.90;;;;;;5047041;28;20514;-70
2023/12/18 06:26:48;;;;;;;53.70;32.38;;;7.90;99.90;;;;;;5052760;28;20240;-68
2023/12/18 06:29:15;;;;;;;51.63;32.58;;;7.80;99.90;;;;;;5050587;28;20255;-70
2023/12/18 06:31:42;;;;;;;51.20;32.80;;;7.80;99.90;;;;;;5048865;28;20610;-69
2023/12/18 06:34:10;;;;;;;42.35;28.98;;;7.90;99.90;;;;;;5053440;28;20239;-68
2023/12/18 06:36:37;;;;;;;58.60;32.47;;;7.90;99.90;;;;;;5047771;28;20666;-70
2023/12/18 06:39:05;;;;;;;53.22;30.48;;;7.90;99.90;;;;;;5053231;28;20254;-70
2023/12/18 06:41:33;;;;;;;62.47;33.70;;;8.00;99.90;;;;;;5050853;28;20286;-67
2023/12/18 06:44:00;;;;;;;50.13;31.13;;;7.90;99.90;;;;;;5049981;28;20196;-67
2023/12/18 06:46:28;;;;;;;55.22;33.25;;;8.00;99.90;;;;;;5054495;28;20281;-68
2023/12/18 06:48:56;;;;;;;53.15;31.02;;;8.00;99.90;;;;;;5045789;28;20695;-67
2023/12/18 06:51:25;;;;;;;50.42;31.98;;;7.90;99.90;;;;;;5054807;28;20257;-67
2023/12/18 06:53:52;;;;;;;53.20;30.10;;;8.00;99.90;;;;;;5055092;28;20257;-69
2023/12/18 06:56:19;;;;;;;47.28;30.50;;;8.00;99.90;;;;;;5049688;28;20226;-66
2023/12/18 06:58:47;;;;;;;56.40;31.63;;;8.00;99.90;;;;;;5044783;28;20235;-67
2023/12/18 07:01:17;;;;;;;45.72;30.63;;;8.00;99.90;;;;;;5046612;28;20219;-67
2023/12/18 07:03:44;;;;;;;53.58;31.33;;;8.00;99.90;;;;;;5055050;28;20239;-66
2023/12/18 07:06:11;;;;;;;42.97;28.40;;;8.10;99.90;;;;;;5045754;28;20662;-70
2023/12/18 07:08:38;;;;;;;50.75;29.95;;;8.10;99.90;;;;;;5060339;28;20200;-67
2023/12/18 07:11:05;;;;;;;52.05;30.40;;;8.10;99.90;;;;;;5048040;28;20231;-66
2023/12/18 07:13:32;;;;;;;48.38;31.80;;;8.10;99.90;;;;;;5044151;28;20204;-67
2023/12/18 07:16:00;;;;;;;44.75;29.65;;;8.10;99.90;;;;;;5049973;28;20277;-68
2023/12/18 07:18:27;;;;;;;46.53;29.88;;;8.10;99.90;;;;;;5048759;28;20220;-67
2023/12/18 07:20:55;;;;;;;52.45;28.98;;;8.10;99.90;;;;;;5052570;28;20231;-65
2023/12/18 07:23:22;;;;;;;45.10;30.08;;;8.10;99.90;;;;;;5055520;28;20200;-68
2023/12/18 07:25:49;;;;;;;55.60;30.98;;;8.10;99.90;;;;;;5048355;28;20235;-68
2023/12/18 07:28:16;;;;;;;47.67;28.70;;;8.10;99.90;;;;;;5047809;28;20275;-65
2023/12/18 07:30:44;;;;;;;43.90;28.45;;;8.10;99.90;;;;;;5054453;28;20250;-68
2023/12/18 07:33:12;;;;;;;57.35;30.15;;;8.20;99.90;;;;;;5054324;28;20249;-65
2023/12/18 07:35:39;;;;;;;46.30;26.10;;;8.20;99.90;;;;;;5051430;28;20682;-70
2023/12/18 07:38:07;;;;;;;42.45;28.75;;;8.30;99.90;;;;;;5060462;28;20235;-69
2023/12/18 07:40:34;;;;;;;47.38;26.88;;;8.30;99.90;;;;;;5046784;28;20201;-66
2023/12/18 07:43:01;;;;;;;42.72;29.33;;;8.30;99.90;;;;;;5047933;28;20265;-66
2023/12/18 07:45:28;;;;;;;37.60;25.50;;;8.30;99.90;;;;;;5050743;28;20196;-66
2023/12/18 07:47:56;;;;;;;50.78;31.52;;;8.30;99.90;;;;;;5055265;28;20212;-67
2023/12/18 07:50:24;;;;;;;41.40;29.60;;;8.40;99.90;;;;;;5041206;28;20263;-67
2023/12/18 07:52:51;;;;;;;45.72;26.52;;;8.40;99.90;;;;;;5047730;28;20203;-70
2023/12/18 07:55:18;;;;;;;44.13;26.13;;;8.40;99.90;;;;;;5045101;28;20638;-67
2023/12/18 07:57:45;;;;;;;47.88;26.27;;;8.30;99.90;;;;;;5041413;28;20225;-68
2023/12/18 08:00:13;;;;;;;42.58;27.55;;;8.40;99.90;;;;;;5049240;28;20266;-70
2023/12/18 08:02:40;;;;;;;40.75;26.40;;;8.30;99.90;;;;;;5044592;28;20266;-71
2023/12/18 08:05:07;;;;;;;45.60;26.65;;;8.30;99.90;;;;;;5051082;28;20199;-67
2023/12/18 08:07:36;;;;;;;42.53;27.50;;;8.40;99.90;;;;;;5054905;28;20223;-68
2023/12/18 08:10:03;;;;;;;38.30;27.38;;;8.30;99.90;;;;;;5042280;28;20208;-69
2023/12/18 08:12:30;;;;;;;47.10;26.75;;;8.40;99.90;;;;;;5040758;28;20232;-69
2023/12/18 08:14:57;;;;;;;43.15;24.48;;;8.40;99.90;;;;;;5048637;28;20645;-67
2023/12/18 08:17:25;;;;;;;36.55;26.20;;;8.50;99.90;;;;;;5052058;28;20286;-67
2023/12/18 08:19:52;;;;;;;43.28;27.13;;;8.40;99.90;;;;;;5052061;28;20246;-69
2023/12/18 08:22:25;;;;;;;37.60;25.23;;;8.40;99.90;;;;;;5049927;28;20204;-68
2023/12/18 08:24:54;;;;;;;46.92;29.25;;;8.40;99.90;;;;;;5048585;28;20196;-69
2023/12/18 08:27:21;;;;;;;42.53;29.95;;;8.40;99.90;;;;;;5050857;28;20212;-70
2023/12/18 08:29:48;;;;;;;53.28;28.90;;;8.40;99.90;;;;;;5050855;28;20195;-69
2023/12/18 08:32:15;;;;;;;39.15;26.45;;;8.40;99.90;;;;;;5054703;28;20207;-66
2023/12/18 08:34:42;;;;;;;41.85;28.45;;;8.40;99.90;;;;;;5044839;28;20223;-69
2023/12/18 08:37:09;;;;;;;42.67;25.50;;;8.40;99.90;;;;;;5031089;28;20568;-67
2023/12/18 08:39:36;;;;;;;38.33;25.83;;;8.50;99.90;;;;;;5054516;28;20204;-67
2023/12/18 08:42:05;;;;;;;39.53;26.35;;;8.50;99.90;;;;;;5043586;28;20303;-66
2023/12/18 08:44:32;;;;;;;43.30;28.45;;;8.40;99.90;;;;;;5038939;28;20197;-67
2023/12/18 08:46:59;;;;;;;51.28;26.92;;;8.40;99.90;;;;;;5050674;28;20227;-67
2023/12/18 08:49:26;;;;;;;53.55;26.30;;;8.40;99.90;;;;;;5043912;28;20201;-67
2023/12/18 08:51:53;;;;;;;43.00;28.88;;;8.40;99.90;;;;;;5043701;28;20204;-66
2023/12/18 08:54:20;;;;;;;37.75;25.42;;;8.50;99.90;;;;;;5049241;28;20204;-67
2023/12/18 08:56:48;;;;;;;40.08;27.75;;;8.40;99.90;;;;;;5044774;28;20232;-67
2023/12/18 08:59:16;;;;;;;37.85;24.33;;;8.40;99.90;;;;;;5052989;28;20314;-67
2023/12/18 09:01:43;;;;;;;46.33;26.55;;;8.50;99.90;;;;;;5046956;28;20232;-69
2023/12/18 09:04:11;;;;;;;40.42;26.38;;;8.60;99.90;;;;;;5050677;28;20277;-65
2023/12/18 09:06:39;;;;;;;52.15;26.90;;;8.60;99.90;;;;;;5048071;28;20689;-66
2023/12/18 09:09:06;;;;;;;48.70;26.58;;;8.50;99.90;;;;;;5045816;28;20231;-68
2023/12/18 09:11:35;;;;;;;50.33;26.30;;;8.50;99.90;;;;;;5051547;28;20289;-68
2023/12/18 09:14:03;;;;;;;39.17;27.92;;;8.50;99.90;;;;;;5051049;28;20643;-68
2023/12/18 09:16:31;;;;;;;43.28;26.30;;;8.60;99.90;;;;;;5047288;28;20222;-65
2023/12/18 09:18:58;;;;;;;47.40;25.70;;;8.60;99.90;;;;;;5047473;28;20271;-68
2023/12/18 09:21:25;;;;;;;41.20;25.85;;;8.60;99.90;;;;;;5052092;28;20212;-68
2023/12/18 09:23:52;;;;;;;40.30;26.27;;;8.50;99.90;;;;;;5046206;28;21586;-67
2023/12/18 09:26:20;;;;;;;34.70;25.10;;;8.50;99.90;;;;;;5049595;28;20224;-66
2023/12/18 09:28:47;;;;;;;54.83;26.38;;;8.60;99.90;;;;;;5051073;28;20641;-68
2023/12/18 09:31:16;;;;;;;53.65;26.80;;;8.60;99.90;;;;;;5044561;28;20200;-66
2023/12/18 09:33:44;;;;;;;54.30;26.58;;;8.50;99.90;;;;;;5047998;28;20277;-68
2023/12/18 09:36:11;;;;;;;48.13;28.25;;;8.60;99.90;;;;;;5051793;28;20212;-68
2023/12/18 09:38:39;;;;;;;46.78;25.83;;;8.60;99.90;;;;;;5055941;28;20223;-66
2023/12/18 09:41:07;;;;;;;48.38;27.42;;;8.60;99.90;;;;;;5048552;28;20203;-68
2023/12/18 09:43:35;;;;;;;38.03;28.25;;;8.60;99.90;;;;;;5050812;28;20200;-67
2023/12/18 09:46:03;;;;;;;49.42;27.48;;;8.50;99.90;;;;;;5051998;28;20200;-66
2023/12/18 09:48:30;;;;;;;52.13;28.70;;;8.60;99.90;;;;;;5053062;28;20210;-68
2023/12/18 09:51:00;;;;;;;41.95;26.08;;;8.50;99.90;;;;;;5052238;28;20232;-67
2023/12/18 09:53:28;;;;;;;42.50;26.80;;;8.50;99.90;;;;;;5046319;28;20279;-65
2023/12/18 09:55:56;;;;;;;35.05;27.58;;;8.60;99.90;;;;;;5043216;28;20205;-65
2023/12/18 09:58:25;;;;;;;40.17;26.23;;;8.60;99.90;;;;;;5043065;28;20274;-67
2023/12/18 10:00:52;;;;;;;46.03;26.70;;;8.60;99.90;;;;;;5047743;28;20711;-65
2023/12/18 10:03:18;;;;;;;43.92;26.92;;;8.60;99.90;;;;;;5050236;28;20693;-68
2023/12/18 10:05:46;;;;;;;47.83;27.83;;;8.60;99.90;;;;;;5042720;28;20200;-67
2023/12/18 10:08:15;;;;;;;40.53;26.00;;;8.60;99.90;;;;;;5050874;28;20299;-67
2023/12/18 10:10:44;;;;;;;44.85;28.42;;;8.60;99.90;;;;;;5044610;28;20208;-65
2023/12/18 10:13:13;;;;;;;46.13;28.35;;;8.60;99.90;;;;;;5059987;28;20701;-66
2023/12/18 10:15:42;;;;;;;53.88;27.90;;;8.60;99.90;;;;;;5052245;28;20683;-65
2023/12/18 10:18:10;;;;;;;52.17;29.17;;;8.60;99.90;;;;;;5055674;28;20227;-67
2023/12/18 10:20:40;;;;;;;43.58;26.10;;;8.50;99.90;;;;;;5050598;28;20626;-69
2023/12/18 10:23:07;;;;;;;52.63;29.25;;;8.50;99.90;;;;;;5047737;28;20208;-67
2023/12/18 10:25:36;;;;;;;45.58;25.80;;;8.60;99.90;;;;;;5052860;28;20253;-69
2023/12/18 10:28:03;;;;;;;38.35;26.60;;;8.60;99.90;;;;;;5049465;28;20636;-68
2023/12/18 10:30:31;;;;;;;38.00;26.77;;;8.60;99.90;;;;;;5047920;28;20342;-69
2023/12/18 10:32:59;;;;;;;47.97;26.02;;;8.60;99.90;;;;;;5057426;28;20750;-69
2023/12/18 10:35:27;;;;;;;50.20;28.25;;;8.60;99.90;;;;;;5051772;28;20623;-67
2023/12/18 10:37:55;;;;;;;43.47;27.05;;;8.60;99.90;;;;;;5052043;28;20228;-69
2023/12/18 10:40:25;;;;;;;38.67;27.30;;;8.70;99.90;;;;;;5052244;28;20200;-69
2023/12/18 10:43:07;;;;;;;51.35;24.30;;;8.60;99.90;;;;;;5055889;28;20204;-68
2023/12/18 10:45:35;;;;;;;48.30;27.20;;;8.70;99.90;;;;;;5053583;28;20288;-67
2023/12/18 10:48:03;;;;;;;47.85;31.75;;;8.60;99.90;;;;;;5051493;28;20271;-67
2023/12/18 10:50:31;;;;;;;51.53;27.23;;;8.50;99.90;;;;;;5050197;28;20644;-70
2023/12/18 10:53:00;;;;;;;46.15;27.60;;;8.60;99.90;;;;;;5053169;28;20741;-68
2023/12/18 10:55:28;;;;;;;51.15;31.77;;;8.50;99.90;;;;;;5051621;28;20614;-65
2023/12/18 10:57:59;;;;;;;43.63;28.13;;;8.50;99.90;;;;;;5054783;28;20215;-68
2023/12/18 11:00:28;;;;;;;54.35;29.10;;;8.60;99.90;;;;;;5052790;28;20232;-66
2023/12/18 11:02:56;;;;;;;58.55;31.08;;;8.60;99.90;;;;;;5053055;28;20211;-67
2023/12/18 11:05:25;;;;;;;45.72;27.67;;;8.50;99.90;;;;;;5061825;28;20235;-68
2023/12/18 11:07:53;;;;;;;50.60;28.77;;;8.60;99.90;;;;;;5051072;28;20231;-66
2023/12/18 11:10:20;;;;;;;53.20;26.45;;;8.50;99.90;;;;;;5045064;28;20217;-67
2023/12/18 11:12:51;;;;;;;51.72;29.77;;;8.60;99.90;;;;;;5049663;28;20200;-67
2023/12/18 11:15:29;;;;;;;46.60;29.42;;;8.50;99.90;;;;;;5048288;28;20203;-65
2023/12/18 11:18:12;;;;;;;44.00;25.15;;;8.60;99.90;;;;;;5033342;28;20235;-67
2023/12/18 11:20:42;;;;;;;57.88;27.67;;;8.60;99.90;;;;;;5035055;28;20204;-66
2023/12/18 11:23:11;;;;;;;46.17;27.13;;;8.50;99.90;;;;;;5048312;28;20623;-69
2023/12/18 11:25:39;;;;;;;44.50;26.05;;;8.50;99.90;;;;;;5051587;28;20257;-68
2023/12/18 11:28:07;;;;;;;44.00;27.52;;;8.50;99.90;;;;;;5053631;28;20212;-68
2023/12/18 11:30:37;;;;;;;47.60;28.92;;;8.50;99.90;;;;;;5046859;28;20254;-66
2023/12/18 11:33:05;;;;;;;49.97;26.20;;;8.50;99.90;;;;;;5056126;28;20203;-66
2023/12/18 11:35:34;;;;;;;50.45;28.83;;;8.60;99.90;;;;;;5052172;28;20212;-69
2023/12/18 11:38:08;;;;;;;46.50;27.92;;;8.60;99.90;;;;;;5052604;28;20599;-66
2023/12/18 11:40:41;;;;;;;45.28;27.88;;;8.60;99.90;;;;;;5054575;28;20217;-69
2023/12/18 11:43:09;;;;;;;44.83;27.13;;;8.60;99.90;;;;;;5052809;28;20204;-68
2023/12/18 11:45:40;;;;;;;53.80;30.38;;;8.60;99.90;;;;;;5055616;28;20285;-69
2023/12/18 11:48:08;;;;;;;47.25;27.08;;;8.60;99.90;;;;;;5047655;28;20273;-69
2023/12/18 11:50:37;;;;;;;47.47;30.98;;;8.60;99.90;;;;;;5047977;28;20259;-68
2023/12/18 11:53:08;;;;;;;49.15;30.70;;;8.60;99.90;;;;;;5039238;28;20559;-67
2023/12/18 11:55:46;;;;;;;47.55;28.67;;;8.60;99.90;;;;;;5048040;28;20215;-67
2023/12/18 11:58:15;;;;;;;47.53;26.45;;;8.60;99.90;;;;;;5041692;28;20259;-67
2023/12/18 12:00:44;;;;;;;49.97;28.65;;;8.60;99.90;;;;;;5035976;28;20209;-68
2023/12/18 12:03:13;;;;;;;51.38;27.10;;;8.60;99.90;;;;;;5043583;28;20200;-67
2023/12/18 12:05:40;;;;;;;49.50;28.58;;;8.60;99.90;;;;;;5037550;28;20209;-68
2023/12/18 12:08:09;;;;;;;49.03;25.48;;;8.60;99.90;;;;;;5050910;28;20227;-67
2023/12/18 12:10:43;;;;;;;56.40;30.05;;;8.60;99.90;;;;;;5042961;28;20290;-68
2023/12/18 12:13:18;;;;;;;49.08;27.92;;;8.60;99.90;;;;;;5047190;28;20200;-67
2023/12/18 12:15:57;;;;;;;45.05;26.35;;;8.60;99.90;;;;;;5051195;28;20238;-67
2023/12/18 12:18:25;;;;;;;60.45;29.17;;;8.60;99.90;;;;;;5050883;28;20310;-68
2023/12/18 12:20:52;;;;;;;40.70;25.95;;;8.50;99.90;;;;;;5046948;28;20201;-67
2023/12/18 12:23:19;;;;;;;47.40;27.58;;;8.60;99.90;;;;;;5048279;28;20208;-65
2023/12/18 12:25:47;;;;;;;52.97;28.15;;;8.50;99.90;;;;;;5043539;28;20254;-70
2023/12/18 12:28:16;;;;;;;47.05;27.60;;;8.50;99.90;;;;;;5048199;28;20227;-67
2023/12/18 12:30:43;;;;;;;49.35;29.30;;;8.50;99.90;;;;;;5050519;28;20209;-67
2023/12/18 12:33:12;;;;;;;49.03;26.65;;;8.50;99.90;;;;;;5060142;28;20200;-68
2023/12/18 12:35:39;;;;;;;46.60;27.55;;;8.50;99.90;;;;;;5052148;28;20342;-68
2023/12/18 12:38:07;;;;;;;58.08;30.95;;;8.50;99.90;;;;;;5044494;28;20236;-67